Time;durP1;ratioP1;P1;durP2;ratioP2;P2;SDS_P1;SDS_P2;PMS_P1;PMS_P2;Temp;Humidity;BMP_temperature;BMP_pressure;BME280_temperature;BME280_humidity;BME280_pressure;Samples;Min_cycle;Max_cycle;Signal;HPM_P1;HPM_P2
2023/06/20 00:01:17;;;;;;;;;;;;;;;;;;5049057;28;22289;-87
2023/06/20 00:04:00;;;;;;;;;;;;;;;;;;5043673;28;19927;-85
2023/06/20 00:06:26;;;;;;;;;;;;;;;;;;5041369;28;19920;-86
2023/06/20 00:08:52;;;;;;;;;;;;;;;;;;5040997;28;19928;-85
2023/06/20 00:11:18;;;;;;;;;;;;;;;;;;5040519;28;19974;-86
2023/06/20 00:13:44;;;;;;;;;;;;;;;;;;5050092;28;19951;-86
2023/06/20 00:16:10;;;;;;;;;;;;;;;;;;5060943;28;19927;-85
2023/06/20 00:18:36;;;;;;;;;;;;;;;;;;5060493;28;19920;-86
2023/06/20 00:21:02;;;;;;;;;;;;;;;;;;5060618;28;19985;-86
2023/06/20 00:23:29;;;;;;;;;;;;;;;;;;5061169;28;20422;-87
2023/06/20 00:25:55;;;;;;;;;;;;;;;;;;5060859;28;20284;-87
2023/06/20 00:28:21;;;;;;;;;;;;;;;;;;5061209;28;19920;-86
2023/06/20 00:30:47;;;;;;;;;;;;;;;;;;5077510;28;19935;-86
2023/06/20 00:33:13;;;;;;;;;;;;;;;;;;5061036;28;19975;-87
2023/06/20 00:35:39;;;;;;;;;;;;;;;;;;5060308;28;19942;-85
2023/06/20 00:38:06;;;;;;;;;;;;;;;;;;5060092;28;20326;-85
2023/06/20 00:40:32;;;;;;;;;;;;;;;;;;5077398;28;19924;-86
2023/06/20 00:42:58;;;;;;;;;;;;;;;;;;5060983;28;20284;-86
2023/06/20 00:45:24;;;;;;;;;;;;;;;;;;5061027;28;20014;-87
2023/06/20 00:47:50;;;;;;;;;;;;;;;;;;5060929;28;20419;-83
2023/06/20 00:50:16;;;;;;;;;;;;;;;;;;5060294;28;19951;-87
2023/06/20 00:52:42;;;;;;;;;;;;;;;;;;5060610;28;19936;-87
2023/06/20 00:55:08;;;;;;;;;;;;;;;;;;5049018;28;19927;-86
2023/06/20 00:57:34;;;;;;;;;;;;;;;;;;5039922;28;19927;-87
2023/06/20 01:00:00;;;;;;;;;;;;;;;;;;5040290;28;19920;-87
2023/06/20 01:02:26;;;;;;;;;;;;;;;;;;5040664;28;19936;-87
2023/06/20 01:04:51;;;;;;;;;;;;;;;;;;5041030;28;19924;-86
2023/06/20 01:07:17;;;;;;;;;;;;;;;;;;5040417;28;19920;-87
2023/06/20 01:09:44;;;;;;;;;;;;;;;;;;5042625;28;19920;-88
2023/06/20 01:12:10;;;;;;;;;;;;;;;;;;5044432;28;20305;-87
2023/06/20 01:14:36;;;;;;;;;;;;;;;;;;5043921;28;19925;-87
2023/06/20 01:17:02;;;;;;;;;;;;;;;;;;5044562;28;19928;-87
2023/06/20 01:19:28;;;;;;;;;;;;;;;;;;5046017;28;19920;-88
2023/06/20 01:21:54;;;;;;;;;;;;;;;;;;5044579;28;19927;-87
2023/06/20 01:24:20;;;;;;;;;;;;;;;;;;5044748;28;19920;-85
2023/06/20 01:26:46;;;;;;;;;;;;;;;;;;5045107;28;20073;-86
2023/06/20 01:29:12;;;;;;;;;;;;;;;;;;5044687;28;19924;-87
2023/06/20 01:31:38;;;;;;;;;;;;;;;;;;5044286;28;19931;-87
2023/06/20 01:34:10;;;;;;;;;;;;;;;;;;5060943;28;19921;-85
2023/06/20 01:36:36;;;;;;;;;;;;;;;;;;5044038;28;20327;-86
2023/06/20 01:39:02;;;;;;;;;;;;;;;;;;5043925;28;19924;-86
2023/06/20 01:41:28;;;;;;;;;;;;;;;;;;5043125;28;19971;-87
2023/06/20 01:43:55;;;;;;;;;;;;;;;;;;5043768;28;19963;-86
2023/06/20 01:46:22;;;;;;;;;;;;;;;;;;5044162;28;19920;-86
2023/06/20 01:48:48;;;;;;;;;;;;;;;;;;5060376;28;19921;-87
2023/06/20 01:51:14;;;;;;;;;;;;;;;;;;5056452;28;19920;-86
2023/06/20 01:53:40;;;;;;;;;;;;;;;;;;5063612;28;20057;-86
2023/06/20 01:56:06;;;;;;;;;;;;;;;;;;5063472;28;20061;-86
2023/06/20 01:58:32;;;;;;;;;;;;;;;;;;5064001;28;20444;-86
2023/06/20 02:00:57;;;;;;;;;;;;;;;;;;5063626;28;20031;-86
2023/06/20 02:03:24;;;;;;;;;;;;;;;;;;5063390;28;20011;-86
2023/06/20 02:05:50;;;;;;;;;;;;;;;;;;5080050;28;19924;-86
2023/06/20 02:08:16;;;;;;;;;;;;;;;;;;5079635;28;19920;-85
2023/06/20 02:10:42;;;;;;;;;;;;;;;;;;5063432;28;20448;-86
2023/06/20 02:13:08;;;;;;;;;;;;;;;;;;5062415;28;19924;-85
2023/06/20 02:15:34;;;;;;;;;;;;;;;;;;5063307;28;20380;-86
2023/06/20 02:18:02;;;;;;;;;;;;;;;;;;5079338;28;19920;-86
2023/06/20 02:20:29;;;;;;;;;;;;;;;;;;5062672;28;20433;-86
2023/06/20 02:22:55;;;;;;;;;;;;;;;;;;5062926;28;20368;-85
2023/06/20 02:25:21;;;;;;;;;;;;;;;;;;5062838;28;20342;-86
2023/06/20 02:27:48;;;;;;;;;;;;;;;;;;5062628;28;20330;-86
2023/06/20 02:30:13;;;;;;;;;;;;;;;;;;5063595;28;20392;-85
2023/06/20 02:32:39;;;;;;;;;;;;;;;;;;5079262;28;19924;-86
2023/06/20 02:35:05;;;;;;;;;;;;;;;;;;5062748;28;20010;-86
2023/06/20 02:37:33;;;;;;;;;;;;;;;;;;5062716;28;20015;-86
2023/06/20 02:39:59;;;;;;;;;;;;;;;;;;5063150;28;20330;-86
2023/06/20 02:42:25;;;;;;;;;;;;;;;;;;5062690;28;19920;-85
2023/06/20 02:44:50;;;;;;;;;;;;;;;;;;5079260;28;19924;-85
2023/06/20 02:47:16;;;;;;;;;;;;;;;;;;5062245;28;19920;-83
2023/06/20 02:49:42;;;;;;;;;;;;;;;;;;5062329;28;20348;-86
2023/06/20 02:52:08;;;;;;;;;;;;;;;;;;5078377;28;20431;-85
2023/06/20 02:54:34;;;;;;;;;;;;;;;;;;5062327;28;20273;-86
2023/06/20 02:57:00;;;;;;;;;;;;;;;;;;5078870;28;19920;-87
2023/06/20 02:59:26;;;;;;;;;;;;;;;;;;5056898;28;20395;-86
2023/06/20 03:01:52;;;;;;;;;;;;;;;;;;5042142;28;19978;-86
2023/06/20 03:04:18;;;;;;;;;;;;;;;;;;5042281;28;19915;-85
2023/06/20 03:06:44;;;;;;;;;;;;;;;;;;5042369;28;19970;-85
2023/06/20 03:09:10;;;;;;;;;;;;;;;;;;5041742;28;20015;-86
2023/06/20 03:11:36;;;;;;;;;;;;;;;;;;5057924;28;19924;-85
2023/06/20 03:14:03;;;;;;;;;;;;;;;;;;5041944;28;19986;-85
2023/06/20 03:16:30;;;;;;;;;;;;;;;;;;5041924;28;20047;-86
2023/06/20 03:18:56;;;;;;;;;;;;;;;;;;5042185;28;20380;-86
2023/06/20 03:21:22;;;;;;;;;;;;;;;;;;5041697;28;19925;-85
2023/06/20 03:23:48;;;;;;;;;;;;;;;;;;5041948;28;19927;-86
2023/06/20 03:26:14;;;;;;;;;;;;;;;;;;5041335;28;19920;-84
2023/06/20 03:28:40;;;;;;;;;;;;;;;;;;5041647;28;19921;-84
2023/06/20 03:31:06;;;;;;;;;;;;;;;;;;5040761;28;20338;-85
2023/06/20 03:33:32;;;;;;;;;;;;;;;;;;5057842;28;19935;-85
2023/06/20 03:35:59;;;;;;;;;;;;;;;;;;5072297;28;19926;-86
2023/06/20 03:38:25;;;;;;;;;;;;;;;;;;5061852;28;19924;-86
2023/06/20 03:40:52;;;;;;;;;;;;;;;;;;5060766;28;20399;-86
2023/06/20 03:43:18;;;;;;;;;;;;;;;;;;5061932;28;19951;-86
2023/06/20 03:45:43;;;;;;;;;;;;;;;;;;5078695;28;19927;-86
2023/06/20 03:48:09;;;;;;;;;;;;;;;;;;5060899;28;19920;-86
2023/06/20 03:50:35;;;;;;;;;;;;;;;;;;5061211;28;19922;-86
2023/06/20 03:53:01;;;;;;;;;;;;;;;;;;5061350;28;19924;-87
2023/06/20 03:55:27;;;;;;;;;;;;;;;;;;5078264;28;19920;-86
2023/06/20 03:57:53;;;;;;;;;;;;;;;;;;5056982;28;19927;-85
2023/06/20 04:00:19;;;;;;;;;;;;;;;;;;5060946;28;19920;-85
2023/06/20 04:02:46;;;;;;;;;;;;;;;;;;5040347;28;20022;-86
2023/06/20 04:05:11;;;;;;;;;;;;;;;;;;5021251;28;20327;-85
2023/06/20 04:07:42;;;;;;;;;;;;;;;;;;5054996;28;19920;-85
2023/06/20 04:10:08;;;;;;;;;;;;;;;;;;5060081;28;20371;-85
2023/06/20 04:12:34;;;;;;;;;;;;;;;;;;5060469;28;19971;-86
2023/06/20 04:15:00;;;;;;;;;;;;;;;;;;5060906;28;20015;-85
2023/06/20 04:17:26;;;;;;;;;;;;;;;;;;5060655;28;20417;-86
2023/06/20 04:19:52;;;;;;;;;;;;;;;;;;5060637;28;20400;-86
2023/06/20 04:22:18;;;;;;;;;;;;;;;;;;5061297;28;19920;-86
2023/06/20 04:24:44;;;;;;;;;;;;;;;;;;5060860;28;19927;-86
2023/06/20 04:27:10;;;;;;;;;;;;;;;;;;5059910;28;19927;-87
2023/06/20 04:29:36;;;;;;;;;;;;;;;;;;5060409;28;19920;-86
2023/06/20 04:32:02;;;;;;;;;;;;;;;;;;5060593;28;19935;-88
2023/06/20 04:34:28;;;;;;;;;;;;;;;;;;5060479;28;19967;-87
2023/06/20 04:36:54;;;;;;;;;;;;;;;;;;5041329;28;19921;-86
2023/06/20 04:39:20;;;;;;;;;;;;;;;;;;5040874;28;19920;-86
2023/06/20 04:41:46;;;;;;;;;;;;;;;;;;5040489;28;19920;-86
2023/06/20 04:44:12;;;;;;;;;;;;;;;;;;5040448;28;19924;-86
2023/06/20 04:46:38;;;;;;;;;;;;;;;;;;5040477;28;19921;-85
2023/06/20 04:49:06;;;;;;;;;;;;;;;;;;5040503;28;19920;-87
2023/06/20 04:51:32;;;;;;;;;;;;;;;;;;5057242;28;19924;-88
2023/06/20 04:53:58;;;;;;;;;;;;;;;;;;5057298;28;19928;-86
2023/06/20 04:56:24;;;;;;;;;;;;;;;;;;5040490;28;19920;-87
2023/06/20 04:58:50;;;;;;;;;;;;;;;;;;5040757;28;19924;-86
2023/06/20 05:01:16;;;;;;;;;;;;;;;;;;5041109;28;19934;-89
2023/06/20 05:03:46;;;;;;;;;;;;;;;;;;5040772;28;19936;-88
2023/06/20 05:06:16;;;;;;;;;;;;;;;;;;5040160;28;20011;-87
2023/06/20 05:08:42;;;;;;;;;;;;;;;;;;5040250;28;20296;-87
2023/06/20 05:11:08;;;;;;;;;;;;;;;;;;5040557;28;19920;-87
2023/06/20 05:13:34;;;;;;;;;;;;;;;;;;5040076;28;19932;-85
2023/06/20 05:16:00;;;;;;;;;;;;;;;;;;5056718;28;19920;-85
2023/06/20 05:18:26;;;;;;;;;;;;;;;;;;5040254;28;19921;-84
2023/06/20 05:20:55;;;;;;;;;;;;;;;;;;5039708;28;19920;-85
2023/06/20 05:23:21;;;;;;;;;;;;;;;;;;5040075;28;19987;-84
2023/06/20 05:25:47;;;;;;;;;;;;;;;;;;5039843;28;19924;-83
2023/06/20 05:28:13;;;;;;;;;;;;;;;;;;5038891;28;20320;-83
2023/06/20 05:30:38;;;;;;;;;;;;;;;;;;5056000;28;20369;-82
2023/06/20 05:33:04;;;;;;;;;;;;;;;;;;5039668;28;19924;-84
2023/06/20 05:35:30;;;;;;;;;;;;;;;;;;5039894;28;19920;-83
2023/06/20 05:37:56;;;;;;;;;;;;;;;;;;5040092;28;19921;-85
2023/06/20 05:40:22;;;;;;;;;;;;;;;;;;5039423;28;19970;-84
2023/06/20 05:42:50;;;;;;;;;;;;;;;;;;5056097;28;19924;-84
2023/06/20 05:45:16;;;;;;;;;;;;;;;;;;5039694;28;20327;-83
2023/06/20 05:47:50;;;;;;;;;;;;;;;;;;5039892;28;20287;-85
2023/06/20 05:50:17;;;;;;;;;;;;;;;;;;5040276;28;20028;-87
2023/06/20 05:52:43;;;;;;;;;;;;;;;;;;5039549;28;20066;-84
2023/06/20 05:55:09;;;;;;;;;;;;;;;;;;5057327;28;19967;-84
2023/06/20 05:57:35;;;;;;;;;;;;;;;;;;5043250;28;20368;-86
2023/06/20 06:00:10;;;;;;;;;;;;;;;;;;5043116;28;19921;-86
2023/06/20 06:02:36;;;;;;;;;;;;;;;;;;5043442;28;19926;-85
2023/06/20 06:05:03;;;;;;;;;;;;;;;;;;5043076;28;19928;-86
2023/06/20 06:07:30;;;;;;;;;;;;;;;;;;5043528;28;19924;-86
2023/06/20 06:09:56;;;;;;;;;;;;;;;;;;5058981;28;19921;-82
2023/06/20 06:12:22;;;;;;;;;;;;;;;;;;5058621;28;20012;-81
2023/06/20 06:14:47;;;;;;;;;;;;;;;;;;5042501;28;19943;-82
2023/06/20 06:17:19;;;;;;;;;;;;;;;;;;5049650;28;20377;-93
2023/06/20 06:19:45;;;;;;;;;;;;;;;;;;5028741;28;19928;-95
2023/06/20 06:22:12;;;;;;;;;;;;;;;;;;5031029;28;19925;-96
2023/06/20 06:24:38;;;;;;;;;;;;;;;;;;5028860;28;19909;-90
2023/06/20 06:27:04;;;;;;;;;;;;;;;;;;5027629;28;19943;-90
2023/06/20 06:29:30;;;;;;;;;;;;;;;;;;5027427;28;19925;-86
2023/06/20 06:31:55;;;;;;;;;;;;;;;;;;5028628;28;19970;-94
2023/06/20 06:34:22;;;;;;;;;;;;;;;;;;5029430;28;20301;-92
2023/06/20 06:36:49;;;;;;;;;;;;;;;;;;5050555;28;19920;-96
2023/06/20 06:39:25;;;;;;;;;;;;;;;;;;5071199;28;20361;-96
2023/06/20 06:41:51;;;;;;;;;;;;;;;;;;5051857;28;20041;-94
2023/06/20 06:44:17;;;;;;;;;;;;;;;;;;5053035;28;20029;-94
2023/06/20 06:46:48;;;;;;;;;;;;;;;;;;5043030;28;19916;-95
2023/06/20 06:49:14;;;;;;;;;;;;;;;;;;5050479;28;20404;-94
2023/06/20 06:51:40;;;;;;;;;;;;;;;;;;5059337;28;19908;-89
2023/06/20 06:54:06;;;;;;;;;;;;;;;;;;5044263;28;19979;-94
2023/06/20 06:56:32;;;;;;;;;;;;;;;;;;5045761;28;19991;-91
2023/06/20 06:59:00;;;;;;;;;;;;;;;;;;5043632;28;19928;-88
2023/06/20 07:01:28;;;;;;;;;;;;;;;;;;5047044;28;20265;-93
2023/06/20 07:03:54;;;;;;;;;;;;;;;;;;5047064;28;20531;-94
2023/06/20 07:06:20;;;;;;;;;;;;;;;;;;5046605;28;19920;-88
2023/06/20 07:08:46;;;;;;;;;;;;;;;;;;5044856;28;19920;-89
2023/06/20 07:11:12;;;;;;;;;;;;;;;;;;5047677;28;20012;-92
2023/06/20 07:13:37;;;;;;;;;;;;;;;;;;5048687;28;19925;-94
2023/06/20 07:16:03;;;;;;;;;;;;;;;;;;5055145;28;19924;-93
2023/06/20 07:18:29;;;;;;;;;;;;;;;;;;5049698;28;19933;-93
2023/06/20 07:20:59;;;;;;;;;;;;;;;;;;5050201;28;19928;-94
2023/06/20 07:23:28;;;;;;;;;;;;;;;;;;5051700;28;19947;-92
2023/06/20 07:25:56;;;;;;;;;;;;;;;;;;5062767;28;19927;-93
2023/06/20 07:28:25;;;;;;;;;;;;;;;;;;5048416;28;19964;-95
2023/06/20 07:30:51;;;;;;;;;;;;;;;;;;5047100;28;19924;-91
2023/06/20 07:33:17;;;;;;;;;;;;;;;;;;5045881;28;19932;-88
2023/06/20 07:35:42;;;;;;;;;;;;;;;;;;5060949;28;20253;-90
2023/06/20 07:38:08;;;;;;;;;;;;;;;;;;5048143;28;19920;-91
2023/06/20 07:40:34;;;;;;;;;;;;;;;;;;5048101;28;20338;-91
2023/06/20 07:43:03;;;;;;;;;;;;;;;;;;5046551;28;19921;-92
2023/06/20 07:45:29;;;;;;;;;;;;;;;;;;5048874;28;20300;-90
2023/06/20 07:47:55;;;;;;;;;;;;;;;;;;5067597;28;19968;-95
2023/06/20 07:50:23;;;;;;;;;;;;;;;;;;5071065;28;20346;-94
2023/06/20 07:52:51;;;;;;;;;;;;;;;;;;5046251;28;20013;-91
2023/06/20 07:55:17;;;;;;;;;;;;;;;;;;5045598;28;19928;-89
2023/06/20 07:57:43;;;;;;;;;;;;;;;;;;5050908;28;19928;-92
2023/06/20 08:00:11;;;;;;;;;;;;;;;;;;5054003;28;19924;-95
2023/06/20 08:02:37;;;;;;;;;;;;;;;;;;5051139;28;19975;-95
2023/06/20 08:05:08;;;;;;;;;;;;;;;;;;5053669;28;19947;-95
2023/06/20 08:07:35;;;;;;;;;;;;;;;;;;5053268;28;19925;-93
2023/06/20 08:15:28;;;;;;;;;;;;;;;;;;5091109;22;19909;-93
2023/06/20 08:17:54;;;;;;;;;;;;;;;;;;5052257;28;20020;-93
2023/06/20 08:20:30;;;;;;;;;;;;;;;;;;5070863;28;19925;-91
2023/06/20 08:23:02;;;;;;;;;;;;;;;;;;5070907;28;19919;-93
2023/06/20 08:25:31;;;;;;;;;;;;;;;;;;5054356;28;19929;-94
2023/06/20 08:30:29;;;;;;;;;;;;;;;;;;5061096;28;19928;-90
2023/06/20 08:33:02;;;;;;;;;;;;;;;;;;5049942;28;19929;-96
2023/06/20 08:35:28;;;;;;;;;;;;;;;;;;5053333;28;19909;-94
2023/06/20 08:37:55;;;;;;;;;;;;;;;;;;5054628;28;19911;-91
2023/06/20 08:40:23;;;;;;;;;;;;;;;;;;5053638;28;19947;-93
2023/06/20 08:45:40;;;;;;;;;;;;;;;;;;5053600;23;19909;-92
2023/06/20 08:48:06;;;;;;;;;;;;;;;;;;5025321;28;19949;-91
2023/06/20 08:50:32;;;;;;;;;;;;;;;;;;5005281;28;19922;-92
2023/06/20 08:53:01;;;;;;;;;;;;;;;;;;5021764;28;19925;-89
2023/06/20 08:55:32;;;;;;;;;;;;;;;;;;5006189;28;19921;-96
2023/06/20 09:13:31;;;;;;;;;;;;;;;;;;5059785;28;19924;-96
2023/06/20 09:15:58;;;;;;;;;;;;;;;;;;5046572;28;20343;-91
2023/06/20 09:18:24;;;;;;;;;;;;;;;;;;5045650;28;19932;-96
2023/06/20 09:20:50;;;;;;;;;;;;;;;;;;5059855;28;20343;-92
2023/06/20 09:23:16;;;;;;;;;;;;;;;;;;5041789;28;19921;-92
2023/06/20 09:25:42;;;;;;;;;;;;;;;;;;5041043;28;19932;-92
2023/06/20 09:28:08;;;;;;;;;;;;;;;;;;5040953;28;19921;-90
2023/06/20 09:30:34;;;;;;;;;;;;;;;;;;5061940;28;19931;-91
2023/06/20 09:38:12;;;;;;;;;;;;;;;;;;5227227;23;19932;-94
2023/06/20 09:40:48;;;;;;;;;;;;;;;;;;5053709;28;19929;-96
2023/06/20 09:43:14;;;;;;;;;;;;;;;;;;5040563;28;19925;-94
2023/06/20 09:45:40;;;;;;;;;;;;;;;;;;5036536;28;19913;-92
2023/06/20 09:48:06;;;;;;;;;;;;;;;;;;5051578;28;19928;-90
2023/06/20 09:50:32;;;;;;;;;;;;;;;;;;5036293;28;19921;-94
2023/06/20 09:52:58;;;;;;;;;;;;;;;;;;5033695;28;19935;-86
2023/06/20 09:55:24;;;;;;;;;;;;;;;;;;5027527;28;19982;-96
2023/06/20 09:57:50;;;;;;;;;;;;;;;;;;5046826;28;19954;-92
2023/06/20 10:00:16;;;;;;;;;;;;;;;;;;5029368;28;20542;-94
2023/06/20 10:02:42;;;;;;;;;;;;;;;;;;5030104;28;19921;-93
2023/06/20 10:05:08;;;;;;;;;;;;;;;;;;5031603;28;19924;-93
2023/06/20 10:07:34;;;;;;;;;;;;;;;;;;5034378;28;19944;-95
2023/06/20 10:10:00;;;;;;;;;;;;;;;;;;5053177;28;19924;-96
2023/06/20 10:12:27;;;;;;;;;;;;;;;;;;5035158;28;19932;-96
2023/06/20 10:14:53;;;;;;;;;;;;;;;;;;5025818;28;19928;-87
2023/06/20 10:17:19;;;;;;;;;;;;;;;;;;5050236;28;20292;-96
2023/06/20 10:19:45;;;;;;;;;;;;;;;;;;5033629;28;19932;-94
2023/06/20 10:22:11;;;;;;;;;;;;;;;;;;5033802;28;19932;-96
2023/06/20 10:24:37;;;;;;;;;;;;;;;;;;5032881;28;19928;-96
2023/06/20 10:27:04;;;;;;;;;;;;;;;;;;5047285;28;19943;-95
2023/06/20 10:29:30;;;;;;;;;;;;;;;;;;5032297;28;19920;-90
2023/06/20 10:31:57;;;;;;;;;;;;;;;;;;5033251;28;19924;-92
2023/06/20 10:34:22;;;;;;;;;;;;;;;;;;5038545;28;19931;-95
2023/06/20 10:36:48;;;;;;;;;;;;;;;;;;5034895;28;19924;-94
2023/06/20 10:39:14;;;;;;;;;;;;;;;;;;5035746;28;20438;-94
2023/06/20 10:41:41;;;;;;;;;;;;;;;;;;5034482;28;19925;-93
2023/06/20 10:44:12;;;;;;;;;;;;;;;;;;5053041;28;19996;-93
2023/06/20 10:46:38;;;;;;;;;;;;;;;;;;5038175;28;19928;-95
2023/06/20 10:49:04;;;;;;;;;;;;;;;;;;5038259;28;19925;-94
2023/06/20 10:51:34;;;;;;;;;;;;;;;;;;5034507;28;19925;-96
2023/06/20 10:53:59;;;;;;;;;;;;;;;;;;5036770;28;19909;-96
2023/06/20 10:56:25;;;;;;;;;;;;;;;;;;5034297;28;19912;-95
2023/06/20 10:58:52;;;;;;;;;;;;;;;;;;5052034;28;19921;-93
2023/06/20 11:01:18;;;;;;;;;;;;;;;;;;5046656;28;19947;-89
2023/06/20 11:03:45;;;;;;;;;;;;;;;;;;5069438;28;19912;-95
2023/06/20 11:06:11;;;;;;;;;;;;;;;;;;5069797;28;19990;-93
2023/06/20 11:08:40;;;;;;;;;;;;;;;;;;5058938;28;19947;-93
2023/06/20 11:11:13;;;;;;;;;;;;;;;;;;5088819;28;19908;-94
2023/06/20 11:13:43;;;;;;;;;;;;;;;;;;5072390;28;19912;-95
2023/06/20 11:16:12;;;;;;;;;;;;;;;;;;5059821;28;19924;-96
2023/06/20 11:18:51;;;;;;;;;;;;;;;;;;5053474;28;19920;-93
2023/06/20 11:21:17;;;;;;;;;;;;;;;;;;5047922;28;20011;-95
2023/06/20 11:23:43;;;;;;;;;;;;;;;;;;5061945;28;19947;-92
2023/06/20 11:26:09;;;;;;;;;;;;;;;;;;5048246;28;19924;-92
2023/06/20 11:28:36;;;;;;;;;;;;;;;;;;5049009;28;19924;-93
2023/06/20 11:31:02;;;;;;;;;;;;;;;;;;5048468;28;19920;-92
2023/06/20 11:33:28;;;;;;;;;;;;;;;;;;5048415;28;19930;-96
2023/06/20 11:35:54;;;;;;;;;;;;;;;;;;5049924;28;19924;-93
2023/06/20 11:38:20;;;;;;;;;;;;;;;;;;5052451;28;19974;-93
2023/06/20 11:40:46;;;;;;;;;;;;;;;;;;5055350;28;19925;-95
2023/06/20 11:43:12;;;;;;;;;;;;;;;;;;5051674;28;19905;-96
2023/06/20 11:48:14;;;;;;;;;;;;;;;;;;5133458;22;20023;-91
2023/06/20 11:50:41;;;;;;;;;;;;;;;;;;5027051;28;19925;-92
2023/06/20 11:53:07;;;;;;;;;;;;;;;;;;5031916;28;19932;-96
2023/06/20 11:58:10;;;;;;;;;;;;;;;;;;5064413;22;20278;-88
2023/06/20 12:00:37;;;;;;;;;;;;;;;;;;5021716;28;19955;-87
2023/06/20 12:03:04;;;;;;;;;;;;;;;;;;5039820;28;19920;-87
2023/06/20 12:05:29;;;;;;;;;;;;;;;;;;5022948;28;20385;-91
2023/06/20 12:07:55;;;;;;;;;;;;;;;;;;5024502;28;19921;-86
2023/06/20 12:10:24;;;;;;;;;;;;;;;;;;5028205;28;19916;-95
2023/06/20 12:12:50;;;;;;;;;;;;;;;;;;5030074;28;20435;-88
2023/06/20 12:15:17;;;;;;;;;;;;;;;;;;5022921;28;19924;-89
2023/06/20 12:17:43;;;;;;;;;;;;;;;;;;5025283;28;20377;-89
2023/06/20 12:20:08;;;;;;;;;;;;;;;;;;5043205;28;19932;-91
2023/06/20 12:22:34;;;;;;;;;;;;;;;;;;5028890;28;19921;-93
2023/06/20 12:25:01;;;;;;;;;;;;;;;;;;5026999;28;19931;-93
2023/06/20 12:27:27;;;;;;;;;;;;;;;;;;5030682;28;19932;-95
2023/06/20 12:30:02;;;;;;;;;;;;;;;;;;5029307;28;19909;-95
2023/06/20 12:32:28;;;;;;;;;;;;;;;;;;5025497;28;19933;-96
2023/06/20 12:34:54;;;;;;;;;;;;;;;;;;5046377;28;19925;-93
2023/06/20 12:37:22;;;;;;;;;;;;;;;;;;5044128;28;19925;-93
2023/06/20 12:39:47;;;;;;;;;;;;;;;;;;5031992;28;19924;-96
2023/06/20 12:42:18;;;;;;;;;;;;;;;;;;5045526;28;20385;-93
2023/06/20 12:44:47;;;;;;;;;;;;;;;;;;5045542;28;19916;-95
2023/06/20 12:47:20;;;;;;;;;;;;;;;;;;5063449;28;19978;-92
2023/06/20 12:49:46;;;;;;;;;;;;;;;;;;5046536;28;19959;-94
2023/06/20 12:52:12;;;;;;;;;;;;;;;;;;5048302;28;19968;-96
2023/06/20 12:54:44;;;;;;;;;;;;;;;;;;5067603;28;19908;-93
2023/06/20 12:57:10;;;;;;;;;;;;;;;;;;5045301;28;20370;-94
2023/06/20 12:59:39;;;;;;;;;;;;;;;;;;5067041;28;19925;-92
2023/06/20 13:02:05;;;;;;;;;;;;;;;;;;5059823;28;19925;-92
2023/06/20 13:04:31;;;;;;;;;;;;;;;;;;5046813;28;19921;-94
2023/06/20 13:06:56;;;;;;;;;;;;;;;;;;5050565;28;20016;-95
2023/06/20 13:09:23;;;;;;;;;;;;;;;;;;5052054;28;20281;-96
2023/06/20 13:11:49;;;;;;;;;;;;;;;;;;5051186;28;19924;-94
2023/06/20 13:14:15;;;;;;;;;;;;;;;;;;5051561;28;19977;-94
2023/06/20 13:16:41;;;;;;;;;;;;;;;;;;5053967;28;19985;-96
2023/06/20 13:24:19;;;;;;;;;;;;;;;;;;5558081;22;21693;-91
2023/06/20 13:47:30;;;;;;;;;;;;;;;;;;5044889;28;19925;-93
2023/06/20 13:49:57;;;;;;;;;;;;;;;;;;5014004;28;19967;-93
2023/06/20 13:54:59;;;;;;;;;;;;;;;;;;5290647;22;19987;-89
2023/06/20 13:57:26;;;;;;;;;;;;;;;;;;5208847;23;19929;-93
2023/06/20 13:59:52;;;;;;;;;;;;;;;;;;5036390;28;19913;-96
2023/06/20 14:02:18;;;;;;;;;;;;;;;;;;5032752;28;20024;-94
2023/06/20 14:04:53;;;;;;;;;;;;;;;;;;5050734;28;19925;-90
2023/06/20 14:07:19;;;;;;;;;;;;;;;;;;5028281;28;19920;-86
2023/06/20 14:09:45;;;;;;;;;;;;;;;;;;5026279;28;19932;-92
2023/06/20 14:12:13;;;;;;;;;;;;;;;;;;5032510;28;19937;-96
2023/06/20 14:14:39;;;;;;;;;;;;;;;;;;5310126;23;20305;-95
2023/06/20 14:17:05;;;;;;;;;;;;;;;;;;5051547;28;19929;-91
2023/06/20 14:19:34;;;;;;;;;;;;;;;;;;5049777;28;19967;-96
2023/06/20 14:22:00;;;;;;;;;;;;;;;;;;5050358;28;19921;-93
2023/06/20 14:24:25;;;;;;;;;;;;;;;;;;5048191;28;19935;-92
2023/06/20 14:26:51;;;;;;;;;;;;;;;;;;5064223;28;19932;-92
2023/06/20 14:29:18;;;;;;;;;;;;;;;;;;5065424;28;19925;-91
2023/06/20 14:31:44;;;;;;;;;;;;;;;;;;5046224;28;19921;-90
2023/06/20 14:34:09;;;;;;;;;;;;;;;;;;5047984;28;19951;-93
2023/06/20 14:36:37;;;;;;;;;;;;;;;;;;5047051;28;19925;-91
2023/06/20 14:39:03;;;;;;;;;;;;;;;;;;5047024;28;20300;-92
2023/06/20 14:41:29;;;;;;;;;;;;;;;;;;5047182;28;19925;-92
2023/06/20 14:43:55;;;;;;;;;;;;;;;;;;5047496;28;19916;-93
2023/06/20 14:46:21;;;;;;;;;;;;;;;;;;5048102;28;19943;-91
2023/06/20 14:48:48;;;;;;;;;;;;;;;;;;5045556;28;19989;-88
2023/06/20 14:51:14;;;;;;;;;;;;;;;;;;5045205;28;19971;-89
2023/06/20 14:53:40;;;;;;;;;;;;;;;;;;5046495;28;20373;-92
2023/06/20 14:56:06;;;;;;;;;;;;;;;;;;5064848;28;20011;-93
2023/06/20 14:58:32;;;;;;;;;;;;;;;;;;5065278;28;19925;-93
2023/06/20 15:00:58;;;;;;;;;;;;;;;;;;5048573;28;19928;-94
2023/06/20 15:03:24;;;;;;;;;;;;;;;;;;5048297;28;19930;-92
2023/06/20 15:05:50;;;;;;;;;;;;;;;;;;5048023;28;19932;-93
2023/06/20 15:08:16;;;;;;;;;;;;;;;;;;5062892;28;19971;-91
2023/06/20 15:10:42;;;;;;;;;;;;;;;;;;5047538;28;19920;-93
2023/06/20 15:13:08;;;;;;;;;;;;;;;;;;5065373;28;20407;-91
2023/06/20 15:15:34;;;;;;;;;;;;;;;;;;5048752;28;19925;-92
2023/06/20 15:18:00;;;;;;;;;;;;;;;;;;5048137;28;19924;-94
2023/06/20 15:23:12;;;;;;;;;;;;;;;;;;5063813;28;19924;-94
2023/06/20 15:25:38;;;;;;;;;;;;;;;;;;5048104;28;19916;-93
2023/06/20 15:28:04;;;;;;;;;;;;;;;;;;5046313;28;19908;-94
2023/06/20 15:30:31;;;;;;;;;;;;;;;;;;5046945;28;20106;-95
2023/06/20 15:32:57;;;;;;;;;;;;;;;;;;5029538;28;19979;-92
2023/06/20 15:35:23;;;;;;;;;;;;;;;;;;5021942;28;19929;-92
2023/06/20 15:37:49;;;;;;;;;;;;;;;;;;5012336;28;20594;-91
2023/06/20 15:40:15;;;;;;;;;;;;;;;;;;5025274;28;19980;-93
2023/06/20 15:42:41;;;;;;;;;;;;;;;;;;5031245;28;20309;-91
2023/06/20 15:45:07;;;;;;;;;;;;;;;;;;5026954;28;19924;-92
2023/06/20 15:47:33;;;;;;;;;;;;;;;;;;5022139;28;20008;-91
2023/06/20 15:50:12;;;;;;;;;;;;;;;;;;5114355;27;19900;-92
2023/06/20 15:52:41;;;;;;;;;;;;;;;;;;5117347;28;19928;-91
2023/06/20 15:55:09;;;;;;;;;;;;;;;;;;5098833;28;19920;-90
2023/06/20 15:57:36;;;;;;;;;;;;;;;;;;5099016;28;19904;-92
2023/06/20 16:00:05;;;;;;;;;;;;;;;;;;5102366;28;19950;-92
2023/06/20 16:02:31;;;;;;;;;;;;;;;;;;5102156;28;19920;-94
2023/06/20 16:04:57;;;;;;;;;;;;;;;;;;5117420;28;19931;-93
2023/06/20 16:07:23;;;;;;;;;;;;;;;;;;5100584;28;19920;-93
2023/06/20 16:09:49;;;;;;;;;;;;;;;;;;5101227;28;20438;-92
2023/06/20 16:12:17;;;;;;;;;;;;;;;;;;5117834;28;19908;-94
2023/06/20 16:14:43;;;;;;;;;;;;;;;;;;5101311;28;19908;-93
2023/06/20 16:17:09;;;;;;;;;;;;;;;;;;5099714;28;19920;-94
2023/06/20 16:19:35;;;;;;;;;;;;;;;;;;5098580;28;20006;-92
2023/06/20 16:22:01;;;;;;;;;;;;;;;;;;5101320;28;19924;-94
2023/06/20 16:24:27;;;;;;;;;;;;;;;;;;5100463;28;19924;-94
2023/06/20 16:26:53;;;;;;;;;;;;;;;;;;5100613;28;19928;-93
2023/06/20 16:32:17;;;;;;;;;;;;;;;;;;5103279;28;20019;-94
2023/06/20 16:34:43;;;;;;;;;;;;;;;;;;5100306;28;19928;-93
2023/06/20 16:43:23;;;;;;;;;;;;;;;;;;5124440;28;19981;-93
2023/06/20 16:45:49;;;;;;;;;;;;;;;;;;5117214;28;19920;-91
2023/06/20 16:48:23;;;;;;;;;;;;;;;;;;5098100;27;20047;-94
2023/06/20 16:50:50;;;;;;;;;;;;;;;;;;5510508;22;20007;-93
2023/06/20 16:53:16;;;;;;;;;;;;;;;;;;5071795;28;19924;-96
2023/06/20 16:55:43;;;;;;;;;;;;;;;;;;5087578;28;19935;-96
2023/06/20 16:58:09;;;;;;;;;;;;;;;;;;5067773;28;19939;-95
2023/06/20 17:00:35;;;;;;;;;;;;;;;;;;5055962;28;20376;-93
2023/06/20 17:03:02;;;;;;;;;;;;;;;;;;5051340;28;19912;-93
2023/06/20 17:08:04;;;;;;;;;;;;;;;;;;5068960;28;19925;-94
2023/06/20 17:10:30;;;;;;;;;;;;;;;;;;5057159;28;19957;-92
2023/06/20 17:12:57;;;;;;;;;;;;;;;;;;5072742;28;19964;-95
2023/06/20 17:15:23;;;;;;;;;;;;;;;;;;5055500;28;20015;-96
2023/06/20 17:17:48;;;;;;;;;;;;;;;;;;5047346;28;20383;-92
2023/06/20 17:20:14;;;;;;;;;;;;;;;;;;5046971;28;19924;-92
2023/06/20 17:22:40;;;;;;;;;;;;;;;;;;5046325;28;20323;-91
2023/06/20 17:25:06;;;;;;;;;;;;;;;;;;5046981;28;19920;-91
2023/06/20 17:27:32;;;;;;;;;;;;;;;;;;5045346;28;20369;-90
2023/06/20 17:29:58;;;;;;;;;;;;;;;;;;5044607;28;19924;-89
2023/06/20 17:32:24;;;;;;;;;;;;;;;;;;5043557;28;19943;-88
2023/06/20 17:34:51;;;;;;;;;;;;;;;;;;5042454;28;19927;-89
2023/06/20 17:37:23;;;;;;;;;;;;;;;;;;5024515;28;19920;-89
2023/06/20 17:39:49;;;;;;;;;;;;;;;;;;5035542;28;19929;-89
2023/06/20 17:42:15;;;;;;;;;;;;;;;;;;5027859;28;19928;-88
2023/06/20 17:44:44;;;;;;;;;;;;;;;;;;5043253;28;19925;-91
2023/06/20 17:47:12;;;;;;;;;;;;;;;;;;5060924;28;19920;-89
2023/06/20 17:52:23;;;;;;;;;;;;;;;;;;5054899;28;19920;-92
2023/06/20 17:54:50;;;;;;;;;;;;;;;;;;5046457;28;19932;-95
2023/06/20 17:57:15;;;;;;;;;;;;;;;;;;5050141;28;19950;-94
2023/06/20 17:59:47;;;;;;;;;;;;;;;;;;5038140;28;19908;-94
2023/06/20 18:02:23;;;;;;;;;;;;;;;;;;5048824;28;19921;-93
2023/06/20 18:07:35;;;;;;;;;;;;;;;;;;5057742;28;19921;-92